sensor_id;sensor_type;location;lat;lon;timestamp;pressure;altitude;pressure_sealevel;temperature;humidity
11605;BME280;5858;43.076;25.626;2023-04-25T00:01:04;98455.63;;;14.31;97.81
11605;BME280;5858;43.076;25.626;2023-04-25T00:03:31;98539.88;;;14.92;98.13
11605;BME280;5858;43.076;25.626;2023-04-25T00:05:58;98544.81;;;14.95;97.05
11605;BME280;5858;43.076;25.626;2023-04-25T00:08:29;98494.59;;;14.59;97.51
11605;BME280;5858;43.076;25.626;2023-04-25T00:10:56;98475.84;;;14.52;97.56
11605;BME280;5858;43.076;25.626;2023-04-25T00:13:23;98518.91;;;14.82;98.42
11605;BME280;5858;43.076;25.626;2023-04-25T00:15:51;98523.22;;;14.71;99.56
11605;BME280;5858;43.076;25.626;2023-04-25T00:18:18;98519.63;;;14.59;100.00
11605;BME280;5858;43.076;25.626;2023-04-25T00:20:45;98511.78;;;14.58;100.00
11605;BME280;5858;43.076;25.626;2023-04-25T00:23:12;98506.72;;;14.49;100.00
11605;BME280;5858;43.076;25.626;2023-04-25T00:25:44;98454.59;;;14.14;100.00
11605;BME280;5858;43.076;25.626;2023-04-25T00:28:12;98462.06;;;14.12;100.00
11605;BME280;5858;43.076;25.626;2023-04-25T00:30:39;98486.94;;;14.26;100.00
11605;BME280;5858;43.076;25.626;2023-04-25T00:33:07;98359.69;;;13.47;100.00
11605;BME280;5858;43.076;25.626;2023-04-25T00:35:34;98451.13;;;13.95;100.00
11605;BME280;5858;43.076;25.626;2023-04-25T00:38:01;98457.94;;;13.79;100.00
11605;BME280;5858;43.076;25.626;2023-04-25T00:40:29;98434.31;;;13.63;100.00
11605;BME280;5858;43.076;25.626;2023-04-25T00:42:57;98402.69;;;13.47;100.00
11605;BME280;5858;43.076;25.626;2023-04-25T00:45:27;98396.78;;;13.38;100.00
11605;BME280;5858;43.076;25.626;2023-04-25T00:47:54;98463.00;;;13.88;100.00
11605;BME280;5858;43.076;25.626;2023-04-25T00:50:22;98478.28;;;14.05;100.00
11605;BME280;5858;43.076;25.626;2023-04-25T00:52:50;98451.56;;;13.92;100.00
11605;BME280;5858;43.076;25.626;2023-04-25T00:55:17;98493.91;;;14.15;100.00
11605;BME280;5858;43.076;25.626;2023-04-25T00:57:44;98440.84;;;14.04;100.00
11605;BME280;5858;43.076;25.626;2023-04-25T01:00:14;98391.22;;;13.70;100.00
11605;BME280;5858;43.076;25.626;2023-04-25T01:02:41;98482.03;;;14.23;100.00
11605;BME280;5858;43.076;25.626;2023-04-25T01:05:09;98380.31;;;13.65;100.00
11605;BME280;5858;43.076;25.626;2023-04-25T01:07:36;98461.69;;;14.27;100.00
11605;BME280;5858;43.076;25.626;2023-04-25T01:10:04;98463.91;;;14.30;100.00
11605;BME280;5858;43.076;25.626;2023-04-25T01:12:31;98449.06;;;14.27;100.00
11605;BME280;5858;43.076;25.626;2023-04-25T01:14:59;98390.34;;;13.76;100.00
11605;BME280;5858;43.076;25.626;2023-04-25T01:17:28;98423.72;;;13.86;100.00
11605;BME280;5858;43.076;25.626;2023-04-25T01:19:56;98386.38;;;13.60;100.00
11605;BME280;5858;43.076;25.626;2023-04-25T01:22:26;98397.88;;;13.85;100.00
11605;BME280;5858;43.076;25.626;2023-04-25T01:24:53;98396.31;;;13.78;100.00
11605;BME280;5858;43.076;25.626;2023-04-25T01:27:20;98347.97;;;13.41;100.00
11605;BME280;5858;43.076;25.626;2023-04-25T01:29:48;98280.47;;;13.13;100.00
11605;BME280;5858;43.076;25.626;2023-04-25T01:32:17;98402.84;;;14.00;100.00
11605;BME280;5858;43.076;25.626;2023-04-25T01:34:45;98371.16;;;13.72;100.00
11605;BME280;5858;43.076;25.626;2023-04-25T01:37:12;98396.88;;;13.98;100.00
11605;BME280;5858;43.076;25.626;2023-04-25T01:39:42;98374.50;;;13.68;100.00
11605;BME280;5858;43.076;25.626;2023-04-25T01:42:10;98394.22;;;13.80;100.00
11605;BME280;5858;43.076;25.626;2023-04-25T01:44:37;98292.00;;;13.20;100.00
11605;BME280;5858;43.076;25.626;2023-04-25T01:47:04;98381.28;;;13.89;100.00
11605;BME280;5858;43.076;25.626;2023-04-25T01:49:31;98221.06;;;12.91;100.00
11605;BME280;5858;43.076;25.626;2023-04-25T01:51:58;98250.56;;;13.09;100.00
11605;BME280;5858;43.076;25.626;2023-04-25T01:54:25;98361.50;;;13.83;100.00
11605;BME280;5858;43.076;25.626;2023-04-25T01:56:57;98294.50;;;13.51;100.00
11605;BME280;5858;43.076;25.626;2023-04-25T01:59:24;98349.56;;;13.79;100.00
11605;BME280;5858;43.076;25.626;2023-04-25T02:01:51;98309.72;;;13.58;100.00
11605;BME280;5858;43.076;25.626;2023-04-25T02:04:18;98333.66;;;13.77;100.00
11605;BME280;5858;43.076;25.626;2023-04-25T02:06:45;98284.28;;;13.42;100.00
11605;BME280;5858;43.076;25.626;2023-04-25T02:09:12;98272.28;;;13.44;100.00
11605;BME280;5858;43.076;25.626;2023-04-25T02:11:39;98281.91;;;13.64;100.00
11605;BME280;5858;43.076;25.626;2023-04-25T02:14:08;98289.59;;;13.48;100.00
11605;BME280;5858;43.076;25.626;2023-04-25T02:16:35;98314.38;;;13.80;100.00
11605;BME280;5858;43.076;25.626;2023-04-25T02:19:02;98305.84;;;13.53;100.00
11605;BME280;5858;43.076;25.626;2023-04-25T02:21:31;98334.03;;;13.81;100.00
11605;BME280;5858;43.076;25.626;2023-04-25T02:24:01;98290.34;;;13.67;100.00
11605;BME280;5858;43.076;25.626;2023-04-25T02:26:28;98237.22;;;13.21;100.00
11605;BME280;5858;43.076;25.626;2023-04-25T02:28:56;98322.91;;;13.77;100.00
11605;BME280;5858;43.076;25.626;2023-04-25T02:31:24;98257.84;;;13.27;100.00
11605;BME280;5858;43.076;25.626;2023-04-25T02:33:51;98330.28;;;13.82;100.00
11605;BME280;5858;43.076;25.626;2023-04-25T02:36:18;98261.16;;;13.41;100.00
11605;BME280;5858;43.076;25.626;2023-04-25T02:38:45;98333.09;;;13.87;100.00
11605;BME280;5858;43.076;25.626;2023-04-25T02:41:12;98239.84;;;13.28;100.00
11605;BME280;5858;43.076;25.626;2023-04-25T02:43:40;98176.09;;;12.86;100.00
11605;BME280;5858;43.076;25.626;2023-04-25T02:46:07;98319.84;;;13.74;100.00
11605;BME280;5858;43.076;25.626;2023-04-25T02:48:35;98329.47;;;13.81;100.00
11605;BME280;5858;43.076;25.626;2023-04-25T02:51:02;98226.16;;;13.11;100.00
11605;BME280;5858;43.076;25.626;2023-04-25T02:53:29;98265.72;;;13.40;100.00
11605;BME280;5858;43.076;25.626;2023-04-25T02:55:56;98212.84;;;13.04;100.00
11605;BME280;5858;43.076;25.626;2023-04-25T02:58:24;98290.72;;;13.41;100.00
11605;BME280;5858;43.076;25.626;2023-04-25T03:00:51;98310.66;;;13.63;100.00
11605;BME280;5858;43.076;25.626;2023-04-25T03:03:18;98335.69;;;13.64;100.00
11605;BME280;5858;43.076;25.626;2023-04-25T03:05:48;98338.91;;;13.72;100.00
11605;BME280;5858;43.076;25.626;2023-04-25T03:08:16;98345.09;;;13.73;100.00
11605;BME280;5858;43.076;25.626;2023-04-25T03:10:43;98353.53;;;13.76;100.00
11605;BME280;5858;43.076;25.626;2023-04-25T03:13:10;98266.72;;;13.28;100.00
11605;BME280;5858;43.076;25.626;2023-04-25T03:15:38;98312.50;;;13.51;100.00
11605;BME280;5858;43.076;25.626;2023-04-25T03:18:08;98349.56;;;13.79;100.00
11605;BME280;5858;43.076;25.626;2023-04-25T03:20:35;98239.91;;;13.03;100.00
11605;BME280;5858;43.076;25.626;2023-04-25T03:23:03;98282.97;;;13.33;100.00
11605;BME280;5858;43.076;25.626;2023-04-25T03:25:30;98363.16;;;13.84;100.00
11605;BME280;5858;43.076;25.626;2023-04-25T03:27:57;98355.41;;;13.76;100.00
11605;BME280;5858;43.076;25.626;2023-04-25T03:30:24;98369.66;;;13.76;100.00
11605;BME280;5858;43.076;25.626;2023-04-25T03:32:51;98278.88;;;13.30;100.00
11605;BME280;5858;43.076;25.626;2023-04-25T03:35:18;98323.59;;;13.54;100.00
11605;BME280;5858;43.076;25.626;2023-04-25T03:37:45;98365.25;;;13.82;100.00
11605;BME280;5858;43.076;25.626;2023-04-25T03:40:14;98335.09;;;13.62;100.00
11605;BME280;5858;43.076;25.626;2023-04-25T03:42:41;98293.25;;;13.36;100.00
11605;BME280;5858;43.076;25.626;2023-04-25T03:45:08;98296.69;;;13.43;100.00
11605;BME280;5858;43.076;25.626;2023-04-25T03:47:35;98288.84;;;13.41;100.00
11605;BME280;5858;43.076;25.626;2023-04-25T03:50:02;98355.06;;;13.84;100.00
11605;BME280;5858;43.076;25.626;2023-04-25T03:52:30;98326.59;;;13.46;100.00
11605;BME280;5858;43.076;25.626;2023-04-25T03:54:57;98238.50;;;13.00;100.00
11605;BME280;5858;43.076;25.626;2023-04-25T03:57:25;98340.91;;;13.59;100.00
11605;BME280;5858;43.076;25.626;2023-04-25T03:59:52;98334.78;;;13.70;100.00
11605;BME280;5858;43.076;25.626;2023-04-25T04:02:19;98284.63;;;13.34;100.00
11605;BME280;5858;43.076;25.626;2023-04-25T04:04:46;98352.13;;;13.74;100.00
11605;BME280;5858;43.076;25.626;2023-04-25T04:07:13;98208.09;;;12.88;100.00
11605;BME280;5858;43.076;25.626;2023-04-25T04:09:40;98331.00;;;13.59;100.00
11605;BME280;5858;43.076;25.626;2023-04-25T04:12:07;98309.44;;;13.47;100.00
11605;BME280;5858;43.076;25.626;2023-04-25T04:14:36;98343.91;;;13.50;100.00
11605;BME280;5858;43.076;25.626;2023-04-25T04:17:03;98310.34;;;13.41;100.00
11605;BME280;5858;43.076;25.626;2023-04-25T04:19:31;98346.06;;;13.78;100.00
11605;BME280;5858;43.076;25.626;2023-04-25T04:21:58;98321.06;;;13.60;100.00
11605;BME280;5858;43.076;25.626;2023-04-25T04:24:26;98323.25;;;13.51;100.00
11605;BME280;5858;43.076;25.626;2023-04-25T04:26:53;98355.09;;;13.66;100.00
11605;BME280;5858;43.076;25.626;2023-04-25T04:29:20;98304.59;;;13.19;100.00
11605;BME280;5858;43.076;25.626;2023-04-25T04:31:50;98239.59;;;12.74;100.00
11605;BME280;5858;43.076;25.626;2023-04-25T04:34:20;98302.38;;;13.35;100.00
11605;BME280;5858;43.076;25.626;2023-04-25T04:36:47;98320.22;;;13.59;100.00
11605;BME280;5858;43.076;25.626;2023-04-25T04:39:14;98361.50;;;13.83;100.00
11605;BME280;5858;43.076;25.626;2023-04-25T04:41:41;98167.44;;;12.84;100.00
11605;BME280;5858;43.076;25.626;2023-04-25T04:44:08;98209.03;;;12.93;100.00
11605;BME280;5858;43.076;25.626;2023-04-25T04:46:35;98302.44;;;13.46;100.00
11605;BME280;5858;43.076;25.626;2023-04-25T04:49:11;98338.44;;;13.75;100.00
11605;BME280;5858;43.076;25.626;2023-04-25T04:51:39;98320.78;;;13.49;100.00
11605;BME280;5858;43.076;25.626;2023-04-25T04:54:10;98343.72;;;13.82;100.00
11605;BME280;5858;43.076;25.626;2023-04-25T04:56:37;98301.59;;;13.46;100.00
11605;BME280;5858;43.076;25.626;2023-04-25T04:59:04;98309.84;;;13.63;100.00
11605;BME280;5858;43.076;25.626;2023-04-25T05:01:31;98342.25;;;13.98;100.00
11605;BME280;5858;43.076;25.626;2023-04-25T05:04:00;98347.50;;;13.93;100.00
11605;BME280;5858;43.076;25.626;2023-04-25T05:06:30;98294.97;;;13.78;100.00
11605;BME280;5858;43.076;25.626;2023-04-25T05:08:58;98307.41;;;13.91;100.00
11605;BME280;5858;43.076;25.626;2023-04-25T05:11:25;98227.44;;;13.57;100.00
11605;BME280;5858;43.076;25.626;2023-04-25T05:13:52;98280.50;;;13.91;100.00
11605;BME280;5858;43.076;25.626;2023-04-25T05:16:19;98316.22;;;14.10;100.00
11605;BME280;5858;43.076;25.626;2023-04-25T05:18:47;98268.47;;;13.94;100.00
11605;BME280;5858;43.076;25.626;2023-04-25T05:21:14;98299.06;;;14.34;100.00
11605;BME280;5858;43.076;25.626;2023-04-25T05:23:42;98250.59;;;14.11;100.00
11605;BME280;5858;43.076;25.626;2023-04-25T05:26:10;98342.56;;;14.85;100.00
11605;BME280;5858;43.076;25.626;2023-04-25T05:28:39;98304.03;;;14.72;100.00
11605;BME280;5858;43.076;25.626;2023-04-25T05:31:06;98311.63;;;14.99;99.91
11605;BME280;5858;43.076;25.626;2023-04-25T05:33:34;98278.50;;;14.87;97.82
11605;BME280;5858;43.076;25.626;2023-04-25T05:36:01;98336.34;;;15.19;97.59
11605;BME280;5858;43.076;25.626;2023-04-25T05:38:28;98289.22;;;15.22;96.72
11605;BME280;5858;43.076;25.626;2023-04-25T05:40:56;98352.03;;;15.74;95.75
11605;BME280;5858;43.076;25.626;2023-04-25T05:43:23;98339.94;;;15.77;94.38
11605;BME280;5858;43.076;25.626;2023-04-25T05:45:50;98301.66;;;15.51;93.82
11605;BME280;5858;43.076;25.626;2023-04-25T05:48:17;98272.50;;;15.48;93.79
11605;BME280;5858;43.076;25.626;2023-04-25T05:50:45;98312.41;;;15.74;94.35
11605;BME280;5858;43.076;25.626;2023-04-25T05:53:11;98324.72;;;15.99;94.85
11605;BME280;5858;43.076;25.626;2023-04-25T05:55:39;98323.47;;;16.35;93.44
11605;BME280;5858;43.076;25.626;2023-04-25T05:58:07;98226.66;;;16.44;90.98
11605;BME280;5858;43.076;25.626;2023-04-25T06:00:34;98307.81;;;17.26;87.45
11605;BME280;5858;43.076;25.626;2023-04-25T06:03:01;98321.72;;;17.56;84.36
11605;BME280;5858;43.076;25.626;2023-04-25T06:05:28;98370.38;;;17.73;79.75
11605;BME280;5858;43.076;25.626;2023-04-25T06:07:55;98375.63;;;17.63;79.21
11605;BME280;5858;43.076;25.626;2023-04-25T06:10:22;98372.06;;;17.79;81.52
11605;BME280;5858;43.076;25.626;2023-04-25T06:12:49;98259.66;;;17.23;80.42
11605;BME280;5858;43.076;25.626;2023-04-25T06:15:18;98296.00;;;17.54;81.57
11605;BME280;5858;43.076;25.626;2023-04-25T06:17:45;98263.28;;;17.34;80.70
11605;BME280;5858;43.076;25.626;2023-04-25T06:20:12;98367.34;;;18.18;81.17
11605;BME280;5858;43.076;25.626;2023-04-25T06:22:39;98306.63;;;17.82;81.05
11605;BME280;5858;43.076;25.626;2023-04-25T06:25:07;98320.31;;;17.98;80.07
11605;BME280;5858;43.076;25.626;2023-04-25T06:27:36;98289.03;;;17.85;78.90
11605;BME280;5858;43.076;25.626;2023-04-25T06:30:04;98326.47;;;17.93;78.30
11605;BME280;5858;43.076;25.626;2023-04-25T06:32:33;98341.13;;;17.97;78.09
11605;BME280;5858;43.076;25.626;2023-04-25T06:35:00;98303.22;;;17.97;79.13
11605;BME280;5858;43.076;25.626;2023-04-25T06:37:27;98291.25;;;17.88;77.33
11605;BME280;5858;43.076;25.626;2023-04-25T06:39:54;98322.16;;;18.19;77.24
11605;BME280;5858;43.076;25.626;2023-04-25T06:42:21;98318.91;;;18.22;75.67
11605;BME280;5858;43.076;25.626;2023-04-25T06:44:48;98314.06;;;18.24;75.65
11605;BME280;5858;43.076;25.626;2023-04-25T06:47:15;98310.97;;;18.10;75.43
11605;BME280;5858;43.076;25.626;2023-04-25T06:49:44;98327.13;;;18.32;75.96
11605;BME280;5858;43.076;25.626;2023-04-25T06:52:11;98343.78;;;18.78;77.25
11605;BME280;5858;43.076;25.626;2023-04-25T06:54:38;98353.28;;;18.80;75.61
11605;BME280;5858;43.076;25.626;2023-04-25T06:57:05;98172.97;;;17.56;74.34
11605;BME280;5858;43.076;25.626;2023-04-25T06:59:32;98262.88;;;17.96;75.81
11605;BME280;5858;43.076;25.626;2023-04-25T07:01:59;98317.59;;;18.24;75.39
11605;BME280;5858;43.076;25.626;2023-04-25T07:04:26;98348.78;;;18.32;75.63
11605;BME280;5858;43.076;25.626;2023-04-25T07:06:55;98303.09;;;18.09;76.00
11605;BME280;5858;43.076;25.626;2023-04-25T07:09:24;98316.53;;;17.99;75.76
11605;BME280;5858;43.076;25.626;2023-04-25T07:11:51;98380.25;;;18.38;77.00
11605;BME280;5858;43.076;25.626;2023-04-25T07:14:18;98319.44;;;18.19;76.62
11605;BME280;5858;43.076;25.626;2023-04-25T07:16:45;98364.22;;;18.59;75.30
11605;BME280;5858;43.076;25.626;2023-04-25T07:19:12;98338.25;;;18.63;74.36
11605;BME280;5858;43.076;25.626;2023-04-25T07:21:39;98368.09;;;19.00;73.67
11605;BME280;5858;43.076;25.626;2023-04-25T07:24:08;98277.44;;;18.48;71.83
11605;BME280;5858;43.076;25.626;2023-04-25T07:26:35;98367.94;;;19.22;73.10
11605;BME280;5858;43.076;25.626;2023-04-25T07:29:02;98331.56;;;19.12;72.40
11605;BME280;5858;43.076;25.626;2023-04-25T07:31:29;98369.56;;;19.65;70.67
11605;BME280;5858;43.076;25.626;2023-04-25T07:33:56;98336.44;;;19.63;72.16
11605;BME280;5858;43.076;25.626;2023-04-25T07:36:23;98346.59;;;19.93;68.32
11605;BME280;5858;43.076;25.626;2023-04-25T07:38:51;98351.78;;;20.04;69.39
11605;BME280;5858;43.076;25.626;2023-04-25T07:41:20;98355.88;;;20.27;64.84
11605;BME280;5858;43.076;25.626;2023-04-25T07:43:47;98364.56;;;20.14;64.31
11605;BME280;5858;43.076;25.626;2023-04-25T07:46:14;98363.22;;;20.32;67.89
11605;BME280;5858;43.076;25.626;2023-04-25T07:48:41;98359.75;;;20.67;66.75
11605;BME280;5858;43.076;25.626;2023-04-25T07:51:08;98354.31;;;20.87;59.84
11605;BME280;5858;43.076;25.626;2023-04-25T07:53:35;98345.34;;;20.92;61.63
11605;BME280;5858;43.076;25.626;2023-04-25T07:56:03;98315.91;;;21.09;60.33
11605;BME280;5858;43.076;25.626;2023-04-25T07:58:31;98301.72;;;21.22;62.56
11605;BME280;5858;43.076;25.626;2023-04-25T08:00:58;98265.56;;;21.17;55.22
11605;BME280;5858;43.076;25.626;2023-04-25T08:03:25;98367.59;;;22.04;56.89
11605;BME280;5858;43.076;25.626;2023-04-25T08:05:53;98259.41;;;21.60;51.78
11605;BME280;5858;43.076;25.626;2023-04-25T08:08:22;98268.19;;;21.47;54.81
11605;BME280;5858;43.076;25.626;2023-04-25T08:10:51;98344.53;;;21.86;54.32
11605;BME280;5858;43.076;25.626;2023-04-25T08:13:18;98240.38;;;20.91;53.75
11605;BME280;5858;43.076;25.626;2023-04-25T08:15:46;98248.28;;;20.82;48.91
11605;BME280;5858;43.076;25.626;2023-04-25T08:18:14;98343.59;;;21.47;48.49
11605;BME280;5858;43.076;25.626;2023-04-25T08:20:41;98313.75;;;21.01;44.57
11605;BME280;5858;43.076;25.626;2023-04-25T08:23:11;98291.50;;;20.89;45.80
11605;BME280;5858;43.076;25.626;2023-04-25T08:25:38;98236.31;;;20.68;47.22
11605;BME280;5858;43.076;25.626;2023-04-25T08:28:12;98248.69;;;21.25;48.79
11605;BME280;5858;43.076;25.626;2023-04-25T08:30:40;98271.56;;;21.83;48.77
11605;BME280;5858;43.076;25.626;2023-04-25T08:33:09;98188.81;;;21.74;47.87
11605;BME280;5858;43.076;25.626;2023-04-25T08:35:36;98259.31;;;22.25;41.67
11605;BME280;5858;43.076;25.626;2023-04-25T08:38:03;98292.84;;;22.54;42.15
11605;BME280;5858;43.076;25.626;2023-04-25T08:40:38;98320.19;;;22.78;41.97
11605;BME280;5858;43.076;25.626;2023-04-25T08:43:06;98262.59;;;22.85;41.96
11605;BME280;5858;43.076;25.626;2023-04-25T08:45:40;98181.56;;;22.56;40.78
11605;BME280;5858;43.076;25.626;2023-04-25T08:48:11;98219.88;;;22.70;41.26
11605;BME280;5858;43.076;25.626;2023-04-25T08:50:39;98273.00;;;22.49;41.41
11605;BME280;5858;43.076;25.626;2023-04-25T08:53:12;98175.09;;;21.89;44.24
11605;BME280;5858;43.076;25.626;2023-04-25T08:55:46;98267.25;;;22.16;44.97
11605;BME280;5858;43.076;25.626;2023-04-25T08:58:15;98296.56;;;22.35;45.76
11605;BME280;5858;43.076;25.626;2023-04-25T09:00:45;98299.22;;;22.00;47.33
11605;BME280;5858;43.076;25.626;2023-04-25T09:03:14;98318.59;;;21.94;46.23
11605;BME280;5858;43.076;25.626;2023-04-25T09:05:44;98313.59;;;21.62;48.51
11605;BME280;5858;43.076;25.626;2023-04-25T09:08:11;98299.31;;;21.31;48.58
11605;BME280;5858;43.076;25.626;2023-04-25T09:10:38;98298.47;;;21.25;49.19
11605;BME280;5858;43.076;25.626;2023-04-25T09:13:06;98322.31;;;21.59;49.70
11605;BME280;5858;43.076;25.626;2023-04-25T09:15:47;98158.91;;;20.50;49.00
11605;BME280;5858;43.076;25.626;2023-04-25T09:18:23;98312.75;;;21.66;44.12
11605;BME280;5858;43.076;25.626;2023-04-25T09:20:52;98220.69;;;21.14;45.49
11605;BME280;5858;43.076;25.626;2023-04-25T09:23:20;98174.25;;;21.00;47.42
11605;BME280;5858;43.076;25.626;2023-04-25T09:25:48;98224.47;;;21.73;45.51
11605;BME280;5858;43.076;25.626;2023-04-25T09:28:25;98166.97;;;21.45;44.75
11605;BME280;5858;43.076;25.626;2023-04-25T09:30:55;98262.91;;;22.15;43.55
11605;BME280;5858;43.076;25.626;2023-04-25T09:33:29;98255.41;;;22.36;42.16
11605;BME280;5858;43.076;25.626;2023-04-25T09:36:02;98273.91;;;22.68;39.85
11605;BME280;5858;43.076;25.626;2023-04-25T09:38:30;98264.75;;;22.54;41.10
11605;BME280;5858;43.076;25.626;2023-04-25T09:40:58;98205.25;;;22.03;40.56
11605;BME280;5858;43.076;25.626;2023-04-25T09:43:56;98142.78;;;21.73;40.20
11605;BME280;5858;43.076;25.626;2023-04-25T09:46:23;98303.63;;;22.99;40.85
11605;BME280;5858;43.076;25.626;2023-04-25T09:49:06;98236.59;;;21.95;40.93
11605;BME280;5858;43.076;25.626;2023-04-25T09:51:35;98226.38;;;21.33;42.82
11605;BME280;5858;43.076;25.626;2023-04-25T09:54:03;98287.97;;;20.73;45.50
11605;BME280;5858;43.076;25.626;2023-04-25T09:56:35;98293.38;;;19.92;47.44
11605;BME280;5858;43.076;25.626;2023-04-25T09:59:03;98304.47;;;19.17;49.69
11605;BME280;5858;43.076;25.626;2023-04-25T10:01:31;98405.59;;;18.49;58.97
11605;BME280;5858;43.076;25.626;2023-04-25T10:04:10;98376.22;;;17.87;66.45
11605;BME280;5858;43.076;25.626;2023-04-25T10:06:38;98391.97;;;17.68;72.65
11605;BME280;5858;43.076;25.626;2023-04-25T10:09:20;98285.13;;;16.66;76.29
11605;BME280;5858;43.076;25.626;2023-04-25T10:11:50;98398.13;;;16.91;80.70
11605;BME280;5858;43.076;25.626;2023-04-25T10:14:36;98401.75;;;16.80;81.61
11605;BME280;5858;43.076;25.626;2023-04-25T10:17:03;98358.41;;;16.42;79.81
11605;BME280;5858;43.076;25.626;2023-04-25T10:19:33;98360.50;;;16.23;82.48
11605;BME280;5858;43.076;25.626;2023-04-25T10:22:07;98377.22;;;16.53;83.59
11605;BME280;5858;43.076;25.626;2023-04-25T10:24:39;98308.00;;;15.85;84.52
11605;BME280;5858;43.076;25.626;2023-04-25T10:27:07;98231.81;;;15.50;85.61
11605;BME280;5858;43.076;25.626;2023-04-25T10:29:35;98288.50;;;15.95;84.08
11605;BME280;5858;43.076;25.626;2023-04-25T10:32:03;98280.94;;;15.80;87.30
11605;BME280;5858;43.076;25.626;2023-04-25T10:34:43;98337.78;;;16.35;87.11
11605;BME280;5858;43.076;25.626;2023-04-25T10:37:21;98306.72;;;16.04;87.02
11605;BME280;5858;43.076;25.626;2023-04-25T10:39:57;98214.09;;;15.54;85.87
11605;BME280;5858;43.076;25.626;2023-04-25T10:42:35;98169.69;;;15.28;85.55
11605;BME280;5858;43.076;25.626;2023-04-25T10:45:09;98220.06;;;15.56;85.60
11605;BME280;5858;43.076;25.626;2023-04-25T10:47:44;98233.88;;;15.88;85.26
11605;BME280;5858;43.076;25.626;2023-04-25T10:50:18;98220.31;;;16.16;87.93
11605;BME280;5858;43.076;25.626;2023-04-25T10:52:45;98298.81;;;16.48;90.60
11605;BME280;5858;43.076;25.626;2023-04-25T10:55:15;98337.53;;;17.04;87.43
11605;BME280;5858;43.076;25.626;2023-04-25T10:57:46;98260.00;;;16.88;87.89
11605;BME280;5858;43.076;25.626;2023-04-25T11:00:20;98187.47;;;16.41;85.81
11605;BME280;5858;43.076;25.626;2023-04-25T11:03:06;98333.91;;;17.37;85.95
11605;BME280;5858;43.076;25.626;2023-04-25T11:05:36;98241.09;;;16.88;90.41
11605;BME280;5858;43.076;25.626;2023-04-25T11:08:11;98301.72;;;17.79;87.21
11605;BME280;5858;43.076;25.626;2023-04-25T11:10:40;98244.63;;;17.81;81.98
11605;BME280;5858;43.076;25.626;2023-04-25T11:13:16;98344.53;;;18.68;81.83
11605;BME280;5858;43.076;25.626;2023-04-25T11:15:45;98289.34;;;18.47;82.59
11605;BME280;5858;43.076;25.626;2023-04-25T11:18:16;98363.22;;;19.02;79.05
11605;BME280;5858;43.076;25.626;2023-04-25T11:20:48;98353.88;;;18.87;76.87
11605;BME280;5858;43.076;25.626;2023-04-25T11:23:15;98286.91;;;18.46;76.54
11605;BME280;5858;43.076;25.626;2023-04-25T11:25:51;98240.41;;;17.95;78.35
11605;BME280;5858;43.076;25.626;2023-04-25T11:28:21;98322.41;;;18.49;80.83
11605;BME280;5858;43.076;25.626;2023-04-25T11:30:55;98345.28;;;18.96;79.62
11605;BME280;5858;43.076;25.626;2023-04-25T11:33:32;98200.25;;;18.14;80.20
11605;BME280;5858;43.076;25.626;2023-04-25T11:36:00;98194.50;;;18.05;80.63
11605;BME280;5858;43.076;25.626;2023-04-25T11:38:28;98315.91;;;19.35;77.71
11605;BME280;5858;43.076;25.626;2023-04-25T11:40:56;98222.31;;;19.27;78.23
11605;BME280;5858;43.076;25.626;2023-04-25T11:43:25;98254.22;;;19.77;74.80
11605;BME280;5858;43.076;25.626;2023-04-25T11:45:52;98221.03;;;19.50;70.75
11605;BME280;5858;43.076;25.626;2023-04-25T11:48:19;98237.72;;;20.04;71.89
11605;BME280;5858;43.076;25.626;2023-04-25T11:50:47;98215.44;;;20.07;70.25
11605;BME280;5858;43.076;25.626;2023-04-25T11:53:18;98285.25;;;20.37;65.30
11605;BME280;5858;43.076;25.626;2023-04-25T11:55:50;98255.91;;;20.29;68.77
11605;BME280;5858;43.076;25.626;2023-04-25T11:58:17;98234.19;;;19.94;62.74
11605;BME280;5858;43.076;25.626;2023-04-25T12:00:45;98264.00;;;19.84;66.42
11605;BME280;5858;43.076;25.626;2023-04-25T12:03:12;98224.63;;;19.81;64.79
11605;BME280;5858;43.076;25.626;2023-04-25T12:05:39;98169.97;;;19.37;69.14
11605;BME280;5858;43.076;25.626;2023-04-25T12:08:11;98222.22;;;19.95;71.31
11605;BME280;5858;43.076;25.626;2023-04-25T12:10:41;98266.44;;;19.70;63.05
11605;BME280;5858;43.076;25.626;2023-04-25T12:13:20;98223.47;;;19.41;61.99
11605;BME280;5858;43.076;25.626;2023-04-25T12:15:54;98225.84;;;19.33;66.51
11605;BME280;5858;43.076;25.626;2023-04-25T12:18:25;98267.41;;;19.43;66.25
11605;BME280;5858;43.076;25.626;2023-04-25T12:20:57;98157.63;;;18.83;67.44
11605;BME280;5858;43.076;25.626;2023-04-25T12:23:26;98176.97;;;19.02;69.15
11605;BME280;5858;43.076;25.626;2023-04-25T12:25:56;98116.03;;;18.58;66.82
11605;BME280;5858;43.076;25.626;2023-04-25T12:28:25;98208.19;;;19.15;69.04
11605;BME280;5858;43.076;25.626;2023-04-25T12:31:00;98135.91;;;18.73;70.37
11605;BME280;5858;43.076;25.626;2023-04-25T12:33:29;98174.78;;;18.99;70.20
11605;BME280;5858;43.076;25.626;2023-04-25T12:35:57;98193.81;;;19.19;72.01
11605;BME280;5858;43.076;25.626;2023-04-25T12:38:28;98245.91;;;19.27;69.31
11605;BME280;5858;43.076;25.626;2023-04-25T12:40:58;98236.06;;;19.05;68.65
11605;BME280;5858;43.076;25.626;2023-04-25T12:43:27;98091.94;;;18.09;69.08
11605;BME280;5858;43.076;25.626;2023-04-25T12:45:57;98176.66;;;18.46;68.40
11605;BME280;5858;43.076;25.626;2023-04-25T12:48:25;98130.22;;;17.90;70.29
11605;BME280;5858;43.076;25.626;2023-04-25T12:50:52;98108.28;;;17.87;72.01
11605;BME280;5858;43.076;25.626;2023-04-25T12:53:22;98187.88;;;18.23;73.73
11605;BME280;5858;43.076;25.626;2023-04-25T12:55:50;98225.88;;;18.38;76.06
11605;BME280;5858;43.076;25.626;2023-04-25T12:58:19;98226.13;;;18.37;78.43
11605;BME280;5858;43.076;25.626;2023-04-25T13:00:46;98202.16;;;18.13;80.85
11605;BME280;5858;43.076;25.626;2023-04-25T13:03:15;98277.22;;;18.55;82.05